Time;durP1;ratioP1;P1;durP2;ratioP2;P2;SDS_P1;SDS_P2;PMS_P1;PMS_P2;Temp;Humidity;BMP_temperature;BMP_pressure;BME280_temperature;BME280_humidity;BME280_pressure;Samples;Min_cycle;Max_cycle;Signal;HPM_P1;HPM_P2
2021/05/29 00:00:52;;;;;;;3.40;3.10;;;19.20;51.30;;;;;;3135833;28;20076;-79
2021/05/29 00:02:23;;;;;;;3.50;3.20;;;19.20;51.30;;;;;;3137202;28;20092;-79
2021/05/29 00:03:54;;;;;;;3.35;3.00;;;19.20;51.30;;;;;;3137598;28;20515;-79
2021/05/29 00:05:25;;;;;;;4.10;3.70;;;19.20;51.30;;;;;;3136690;28;20072;-79
2021/05/29 00:06:57;;;;;;;3.78;3.20;;;19.20;51.30;;;;;;3136797;28;20072;-79
2021/05/29 00:08:28;;;;;;;3.50;3.17;;;19.20;51.30;;;;;;3137112;28;20069;-79
2021/05/29 00:09:59;;;;;;;3.60;3.25;;;19.20;51.30;;;;;;3136439;28;20087;-78
2021/05/29 00:11:30;;;;;;;3.60;3.10;;;19.20;51.30;;;;;;3136905;28;20073;-79
2021/05/29 00:13:01;;;;;;;4.20;3.80;;;19.20;51.30;;;;;;3136862;28;20355;-79
2021/05/29 00:14:34;;;;;;;3.30;2.97;;;19.20;51.30;;;;;;3136960;28;20464;-79
2021/05/29 00:16:07;;;;;;;3.65;3.35;;;19.20;51.30;;;;;;3134975;28;20045;-79
2021/05/29 00:17:38;;;;;;;3.53;3.22;;;19.20;51.30;;;;;;3136939;28;20041;-79
2021/05/29 00:19:09;;;;;;;3.65;3.35;;;19.20;51.30;;;;;;3137075;28;20507;-79
2021/05/29 00:20:40;;;;;;;3.65;3.33;;;19.20;51.20;;;;;;3136054;28;20068;-79
2021/05/29 00:22:12;;;;;;;4.15;3.45;;;19.20;51.20;;;;;;3136972;28;20099;-78
2021/05/29 00:23:43;;;;;;;3.75;3.45;;;19.20;51.20;;;;;;3136577;28;20045;-77
2021/05/29 00:25:14;;;;;;;4.13;3.33;;;19.20;51.20;;;;;;3135228;28;20138;-76
2021/05/29 00:26:45;;;;;;;3.90;3.50;;;19.20;51.80;;;;;;3135454;28;20044;-77
2021/05/29 00:28:16;;;;;;;3.85;3.53;;;19.20;51.30;;;;;;3135480;28;20080;-77
2021/05/29 00:29:47;;;;;;;3.72;3.42;;;19.20;51.30;;;;;;3134623;28;20521;-78
2021/05/29 00:31:19;;;;;;;3.85;3.55;;;19.20;51.20;;;;;;3134532;28;20051;-77
2021/05/29 00:32:49;;;;;;;4.05;3.72;;;19.20;51.20;;;;;;3135472;28;20130;-77
2021/05/29 00:34:20;;;;;;;4.03;3.63;;;19.20;51.20;;;;;;3135657;28;20444;-77
2021/05/29 00:35:52;;;;;;;3.63;3.25;;;19.20;51.20;;;;;;3134843;28;20067;-78
2021/05/29 00:37:24;;;;;;;4.10;3.80;;;19.20;51.10;;;;;;3135428;28;20103;-77
2021/05/29 00:38:55;;;;;;;4.55;4.15;;;19.20;51.10;;;;;;3135496;28;20053;-77
2021/05/29 00:40:25;;;;;;;4.20;3.80;;;19.20;51.10;;;;;;3134791;28;20068;-77
2021/05/29 00:41:56;;;;;;;4.05;3.72;;;19.20;51.20;;;;;;3135406;28;20049;-77
2021/05/29 00:43:27;;;;;;;4.22;3.83;;;19.20;51.20;;;;;;3135318;28;20081;-77
2021/05/29 00:44:58;;;;;;;4.38;3.97;;;19.20;51.20;;;;;;3134868;28;20077;-77
2021/05/29 00:46:29;;;;;;;4.35;3.95;;;19.20;51.20;;;;;;3134611;28;20094;-76
2021/05/29 00:48:01;;;;;;;4.38;3.97;;;19.20;51.20;;;;;;3135394;28;20084;-79
2021/05/29 00:49:32;;;;;;;4.05;3.70;;;19.20;51.20;;;;;;3136470;28;20615;-80
2021/05/29 00:51:03;;;;;;;4.65;4.07;;;19.20;51.20;;;;;;3136083;28;20130;-78
2021/05/29 00:52:35;;;;;;;4.63;4.10;;;19.20;51.20;;;;;;3136623;28;20080;-79
2021/05/29 00:54:06;;;;;;;4.00;3.65;;;19.20;51.10;;;;;;3136511;28;20079;-80
2021/05/29 00:55:38;;;;;;;4.90;3.78;;;19.20;51.20;;;;;;3136110;28;20124;-79
2021/05/29 00:57:10;;;;;;;4.40;4.00;;;19.20;51.20;;;;;;3136442;28;20049;-80
2021/05/29 00:58:41;;;;;;;4.47;4.07;;;19.20;51.20;;;;;;3136668;28;20072;-79
2021/05/29 01:00:13;;;;;;;4.25;3.85;;;19.20;51.10;;;;;;3135064;28;20279;-78
2021/05/29 01:01:44;;;;;;;3.88;3.47;;;19.20;51.10;;;;;;3137066;28;20076;-79
2021/05/29 01:03:15;;;;;;;4.55;3.95;;;19.20;51.10;;;;;;3137509;28;20080;-79
2021/05/29 01:04:46;;;;;;;4.53;4.13;;;19.20;51.20;;;;;;3136700;28;20072;-78
2021/05/29 01:06:17;;;;;;;3.75;3.45;;;19.20;51.20;;;;;;3135756;28;20080;-77
2021/05/29 01:07:49;;;;;;;4.53;4.10;;;19.20;51.20;;;;;;3135214;28;20056;-77
2021/05/29 01:09:20;;;;;;;4.18;3.78;;;19.20;51.20;;;;;;3135091;28;20052;-77
2021/05/29 01:10:51;;;;;;;4.45;3.85;;;19.20;51.20;;;;;;3134129;28;20533;-78
2021/05/29 01:12:22;;;;;;;4.13;3.83;;;19.20;51.10;;;;;;3135112;28;20084;-77
2021/05/29 01:13:58;;;;;;;4.50;4.10;;;19.20;51.10;;;;;;3135008;28;20274;-77
2021/05/29 01:15:35;;;;;;;4.68;4.18;;;19.20;51.20;;;;;;3133874;28;20045;-77
2021/05/29 01:17:05;;;;;;;4.43;4.03;;;19.20;51.20;;;;;;3135008;28;20045;-77
2021/05/29 01:18:36;;;;;;;4.80;4.40;;;19.20;51.20;;;;;;3135000;28;20049;-77
2021/05/29 01:20:08;;;;;;;4.43;4.03;;;19.20;51.20;;;;;;3134335;28;20520;-77
2021/05/29 01:21:39;;;;;;;4.50;4.10;;;19.20;51.20;;;;;;3134683;28;20045;-78
2021/05/29 01:23:11;;;;;;;4.22;3.83;;;19.20;51.10;;;;;;3134843;28;20079;-78
2021/05/29 01:24:41;;;;;;;4.43;4.05;;;19.20;51.20;;;;;;3135096;28;20130;-79
2021/05/29 01:26:13;;;;;;;4.47;4.07;;;19.20;51.20;;;;;;3135913;28;20448;-79
2021/05/29 01:27:44;;;;;;;4.60;4.20;;;19.20;51.10;;;;;;3136231;28;20114;-80
2021/05/29 01:29:16;;;;;;;4.45;4.13;;;19.20;51.10;;;;;;3136011;28;20429;-79
2021/05/29 01:30:49;;;;;;;4.50;4.10;;;19.20;51.20;;;;;;3134618;28;20045;-78
2021/05/29 01:32:23;;;;;;;4.50;4.10;;;19.20;51.10;;;;;;3136232;28;20053;-79
2021/05/29 01:33:55;;;;;;;4.50;4.20;;;19.20;51.10;;;;;;3136053;28;20049;-79
2021/05/29 01:35:26;;;;;;;5.00;4.60;;;19.20;51.10;;;;;;3135597;28;20049;-79
2021/05/29 01:36:58;;;;;;;4.85;4.45;;;19.20;51.00;;;;;;3136263;28;20087;-79
2021/05/29 01:38:30;;;;;;;4.72;4.25;;;19.20;51.00;;;;;;3135848;28;20049;-78
2021/05/29 01:42:29;;;;;;;4.60;4.20;;;19.20;51.10;;;;;;3122762;28;20044;-79
2021/05/29 01:44:00;;;;;;;4.80;4.40;;;19.20;51.10;;;;;;3135326;28;20052;-78
2021/05/29 01:45:31;;;;;;;5.00;4.50;;;19.20;51.10;;;;;;3134633;28;20478;-79
2021/05/29 01:47:02;;;;;;;4.80;4.40;;;19.20;51.10;;;;;;3136276;28;20088;-79
2021/05/29 01:48:34;;;;;;;5.22;4.70;;;19.20;51.20;;;;;;3135585;28;20052;-78
2021/05/29 01:50:06;;;;;;;5.00;4.60;;;19.20;51.20;;;;;;3135469;28;20063;-79
2021/05/29 01:51:37;;;;;;;4.95;4.55;;;19.20;51.20;;;;;;3135984;28;20166;-78
2021/05/29 01:53:08;;;;;;;5.32;4.82;;;19.20;51.10;;;;;;3135873;28;20096;-79
2021/05/29 01:54:40;;;;;;;5.28;4.78;;;19.20;51.20;;;;;;3135621;28;20468;-79
2021/05/29 01:56:11;;;;;;;5.30;4.80;;;19.20;51.10;;;;;;3135584;28;20076;-79
2021/05/29 01:57:42;;;;;;;5.53;5.03;;;19.20;51.10;;;;;;3135911;28;20049;-79
2021/05/29 01:59:13;;;;;;;5.32;4.90;;;19.20;51.10;;;;;;3135767;28;20072;-78
2021/05/29 02:00:44;;;;;;;4.93;4.50;;;19.20;51.10;;;;;;3134121;28;20199;-80
2021/05/29 02:02:15;;;;;;;5.38;4.88;;;19.20;51.10;;;;;;3135965;28;20077;-79
2021/05/29 02:03:46;;;;;;;5.28;4.80;;;19.20;51.10;;;;;;3136072;28;20114;-80
2021/05/29 02:05:18;;;;;;;5.35;4.63;;;19.20;51.10;;;;;;3135455;28;20072;-79
2021/05/29 02:06:50;;;;;;;5.22;4.72;;;19.20;51.10;;;;;;3135872;28;20059;-79
2021/05/29 02:08:21;;;;;;;5.53;5.03;;;19.20;51.20;;;;;;3135907;28;20072;-78
2021/05/29 02:09:53;;;;;;;5.53;5.00;;;19.20;51.00;;;;;;3135249;28;20107;-79
2021/05/29 02:11:24;;;;;;;5.80;5.10;;;19.20;51.00;;;;;;3135102;28;20071;-79
2021/05/29 02:12:55;;;;;;;5.00;4.60;;;19.20;51.00;;;;;;3135884;28;20410;-80
2021/05/29 02:14:26;;;;;;;5.63;5.13;;;19.20;51.00;;;;;;3135548;28;20630;-78
2021/05/29 02:15:58;;;;;;;5.32;4.88;;;19.20;51.00;;;;;;3134116;28;20065;-79
2021/05/29 02:17:28;;;;;;;5.50;5.00;;;19.20;50.90;;;;;;3135659;28;20084;-80
2021/05/29 02:18:59;;;;;;;5.55;5.07;;;19.20;51.00;;;;;;3136143;28;20048;-79
2021/05/29 02:20:38;;;;;;;5.90;5.30;;;19.20;51.00;;;;;;3134818;28;20480;-78
2021/05/29 02:22:09;;;;;;;6.38;5.35;;;19.20;51.00;;;;;;3135429;28;20076;-79
2021/05/29 02:23:41;;;;;;;5.63;5.13;;;19.20;51.10;;;;;;3135430;28;20515;-79
2021/05/29 02:25:13;;;;;;;5.80;5.30;;;19.20;51.10;;;;;;3135156;28;20544;-79
2021/05/29 02:26:44;;;;;;;5.47;5.07;;;19.20;51.00;;;;;;3135626;28;20052;-79
2021/05/29 02:28:15;;;;;;;5.97;5.38;;;19.20;51.00;;;;;;3135510;28;20077;-79
2021/05/29 02:29:46;;;;;;;5.97;5.47;;;19.20;51.00;;;;;;3135063;28;20092;-79
2021/05/29 02:31:17;;;;;;;5.78;5.28;;;19.20;51.00;;;;;;3134267;28;20390;-79
2021/05/29 02:32:48;;;;;;;5.88;5.28;;;19.20;51.00;;;;;;3135632;28;20572;-79
2021/05/29 02:34:19;;;;;;;6.03;5.53;;;19.20;51.00;;;;;;3135694;28;20049;-78
2021/05/29 02:35:50;;;;;;;6.35;5.80;;;19.20;51.00;;;;;;3135019;28;20041;-78
2021/05/29 02:37:21;;;;;;;6.13;5.53;;;19.20;51.00;;;;;;3135808;28;20076;-79
2021/05/29 02:38:52;;;;;;;6.00;5.50;;;19.20;51.00;;;;;;3135969;28;20073;-79
2021/05/29 02:40:23;;;;;;;5.78;5.28;;;19.20;50.90;;;;;;3134545;28;20065;-79
2021/05/29 02:41:55;;;;;;;6.15;5.55;;;19.20;51.00;;;;;;3135495;28;20091;-79
2021/05/29 02:43:26;;;;;;;6.32;5.70;;;19.20;51.00;;;;;;3135348;28;20091;-79
2021/05/29 02:44:57;;;;;;;5.85;5.35;;;19.20;51.00;;;;;;3135708;28;20049;-78
2021/05/29 02:46:28;;;;;;;5.95;5.35;;;19.20;51.00;;;;;;3134072;28;20116;-79
2021/05/29 02:47:59;;;;;;;6.18;5.57;;;19.20;51.10;;;;;;3135610;28;20157;-79
2021/05/29 02:49:30;;;;;;;5.93;5.32;;;19.20;51.00;;;;;;3135675;28;20072;-81
2021/05/29 02:51:01;;;;;;;6.32;5.72;;;19.20;51.00;;;;;;3134784;28;20048;-79
2021/05/29 02:52:31;;;;;;;6.07;5.55;;;19.20;51.00;;;;;;3135191;28;20131;-79
2021/05/29 02:54:02;;;;;;;5.68;5.18;;;19.20;51.00;;;;;;3135452;28;20052;-79
2021/05/29 02:55:35;;;;;;;6.47;5.60;;;19.20;51.00;;;;;;3133826;28;20049;-79
2021/05/29 02:57:07;;;;;;;5.87;5.37;;;19.20;51.00;;;;;;3135496;28;20106;-79
2021/05/29 02:58:38;;;;;;;6.13;5.55;;;19.20;51.30;;;;;;3135520;28;20319;-79
2021/05/29 03:00:10;;;;;;;5.75;5.25;;;19.20;51.00;;;;;;3133850;28;20076;-79
2021/05/29 03:01:41;;;;;;;5.97;5.47;;;19.20;51.00;;;;;;3135511;28;20045;-78
2021/05/29 03:03:12;;;;;;;6.22;5.63;;;19.20;51.00;;;;;;3135488;28;20049;-79
2021/05/29 03:04:43;;;;;;;5.97;5.25;;;19.20;51.00;;;;;;3135447;28;20049;-79
2021/05/29 03:06:14;;;;;;;6.35;5.78;;;19.20;51.70;;;;;;3134915;28;20072;-79
2021/05/29 03:07:46;;;;;;;6.03;5.53;;;19.20;51.10;;;;;;3135191;28;20491;-79
2021/05/29 03:09:17;;;;;;;5.60;5.10;;;19.20;51.00;;;;;;3135264;28;20045;-79
2021/05/29 03:10:51;;;;;;;6.10;5.50;;;19.20;51.00;;;;;;3134793;28;20045;-79
2021/05/29 03:12:22;;;;;;;6.07;5.47;;;19.20;51.00;;;;;;3135236;28;20045;-79
2021/05/29 03:13:53;;;;;;;6.28;5.68;;;19.20;50.90;;;;;;3135053;28;20127;-79
2021/05/29 03:15:24;;;;;;;6.18;5.57;;;19.20;51.00;;;;;;3134472;28;20204;-79
2021/05/29 03:16:55;;;;;;;5.90;5.32;;;19.20;51.00;;;;;;3135247;28;20045;-79
2021/05/29 03:18:27;;;;;;;6.35;5.75;;;19.20;51.00;;;;;;3135003;28;20124;-79
2021/05/29 03:19:58;;;;;;;6.05;5.53;;;19.20;51.00;;;;;;3135173;28;20063;-80
2021/05/29 03:21:29;;;;;;;5.60;5.10;;;19.20;51.00;;;;;;3134674;28;20069;-79
2021/05/29 03:23:00;;;;;;;5.90;5.40;;;19.20;51.00;;;;;;3161048;22;20300;-84
2021/05/29 03:24:31;;;;;;;6.28;5.78;;;19.20;51.00;;;;;;3154443;28;20049;-82
2021/05/29 03:26:03;;;;;;;6.03;5.43;;;19.20;51.00;;;;;;3153569;28;20047;-83
2021/05/29 03:27:34;;;;;;;5.88;5.38;;;19.20;50.90;;;;;;3154526;28;20048;-83
2021/05/29 03:29:05;;;;;;;5.60;5.10;;;19.20;51.00;;;;;;3154158;28;20523;-83
2021/05/29 03:30:37;;;;;;;6.15;5.65;;;19.20;50.90;;;;;;3152570;28;20072;-83
2021/05/29 03:32:08;;;;;;;6.35;5.75;;;19.20;51.00;;;;;;3152719;28;20097;-82
2021/05/29 03:33:39;;;;;;;5.97;5.43;;;19.20;51.00;;;;;;3141704;28;20053;-83
2021/05/29 03:35:10;;;;;;;6.68;6.03;;;19.20;51.00;;;;;;3140566;28;20049;-83
2021/05/29 03:36:41;;;;;;;6.18;5.65;;;19.20;51.00;;;;;;3141678;28;20045;-83
2021/05/29 03:38:12;;;;;;;6.15;5.63;;;19.20;51.00;;;;;;3141487;28;20045;-84
2021/05/29 03:39:43;;;;;;;6.30;5.70;;;19.20;50.90;;;;;;3141272;28;20041;-82
2021/05/29 03:41:15;;;;;;;6.35;5.72;;;19.20;51.00;;;;;;3141048;28;20509;-83
2021/05/29 03:42:46;;;;;;;5.93;5.43;;;19.20;50.90;;;;;;3140721;28;20065;-82
2021/05/29 03:44:17;;;;;;;6.03;5.53;;;19.20;51.00;;;;;;3141380;28;20056;-82
2021/05/29 03:45:48;;;;;;;5.88;5.38;;;19.20;50.90;;;;;;3139912;28;20461;-82
2021/05/29 03:47:19;;;;;;;5.70;5.20;;;19.20;51.00;;;;;;3141197;28;20053;-82
2021/05/29 03:48:50;;;;;;;6.60;6.00;;;19.20;51.00;;;;;;3140775;28;20673;-83
2021/05/29 03:50:24;;;;;;;5.32;4.82;;;19.20;51.00;;;;;;3140521;28;20052;-82
2021/05/29 03:51:55;;;;;;;5.70;5.20;;;19.10;51.00;;;;;;3141695;28;20048;-83
2021/05/29 03:53:26;;;;;;;5.88;5.38;;;19.20;51.00;;;;;;3141011;28;20443;-83
2021/05/29 03:54:57;;;;;;;5.78;5.28;;;19.20;51.00;;;;;;3141243;28;20045;-84
2021/05/29 03:56:29;;;;;;;5.78;5.28;;;19.20;50.90;;;;;;3140275;28;20045;-83
2021/05/29 03:58:00;;;;;;;6.18;5.60;;;19.20;50.90;;;;;;3141021;28;20076;-83
2021/05/29 03:59:30;;;;;;;6.13;5.53;;;19.20;51.00;;;;;;3141014;28;20517;-82
2021/05/29 04:01:02;;;;;;;5.85;5.35;;;19.20;51.50;;;;;;3139845;28;20060;-83
2021/05/29 04:02:32;;;;;;;6.13;5.63;;;19.20;50.90;;;;;;3141361;28;20074;-83
2021/05/29 04:04:06;;;;;;;6.05;5.55;;;19.20;51.00;;;;;;3140538;28;20049;-83
2021/05/29 04:05:37;;;;;;;6.32;5.75;;;19.20;51.00;;;;;;3140404;28;20051;-83
2021/05/29 04:07:07;;;;;;;6.15;5.55;;;19.20;50.90;;;;;;3142581;28;20049;-83
2021/05/29 04:08:39;;;;;;;6.05;5.55;;;19.20;50.90;;;;;;3142823;28;20072;-83
2021/05/29 04:10:10;;;;;;;6.63;6.03;;;19.20;50.90;;;;;;3141895;28;20079;-82
2021/05/29 04:11:42;;;;;;;6.00;5.40;;;19.20;50.90;;;;;;3142621;28;20398;-82
2021/05/29 04:13:13;;;;;;;6.38;5.78;;;19.10;50.80;;;;;;3143378;28;20808;-83
2021/05/29 04:14:44;;;;;;;6.03;5.43;;;19.20;50.90;;;;;;3142425;28;20047;-82
2021/05/29 04:16:15;;;;;;;5.82;5.07;;;19.20;51.60;;;;;;3141423;28;20045;-83
2021/05/29 04:17:46;;;;;;;6.10;5.50;;;19.20;50.90;;;;;;3143100;28;20094;-83
2021/05/29 04:19:17;;;;;;;6.00;5.50;;;19.20;50.90;;;;;;3142758;28;20045;-83
2021/05/29 04:20:48;;;;;;;6.20;5.60;;;19.20;50.90;;;;;;3142267;28;20045;-82
2021/05/29 04:22:19;;;;;;;5.97;5.32;;;19.20;50.90;;;;;;3143127;28;20053;-83
2021/05/29 04:23:50;;;;;;;6.53;5.93;;;19.20;50.90;;;;;;3142580;28;20053;-84
2021/05/29 04:25:23;;;;;;;6.18;5.40;;;19.10;50.90;;;;;;3142033;28;20052;-82
2021/05/29 04:26:55;;;;;;;6.32;5.72;;;19.10;51.00;;;;;;3143406;28;20111;-83
2021/05/29 04:28:27;;;;;;;5.80;5.30;;;19.20;50.90;;;;;;3143191;28;20056;-83
2021/05/29 04:29:57;;;;;;;7.20;5.93;;;19.20;50.90;;;;;;3142993;28;20564;-83
2021/05/29 04:31:28;;;;;;;6.50;5.93;;;19.20;50.80;;;;;;3141462;28;20041;-81
2021/05/29 04:32:59;;;;;;;6.32;5.75;;;19.20;50.80;;;;;;3142651;28;20056;-82
2021/05/29 04:34:30;;;;;;;5.85;5.35;;;19.20;50.90;;;;;;3143167;28;20430;-82
2021/05/29 04:36:01;;;;;;;6.07;5.55;;;19.20;50.90;;;;;;3142414;28;20045;-83
2021/05/29 04:37:32;;;;;;;6.10;5.60;;;19.10;50.90;;;;;;3143179;28;20460;-84
2021/05/29 04:39:04;;;;;;;6.13;5.63;;;19.20;50.90;;;;;;3142920;28;20044;-82
2021/05/29 04:40:35;;;;;;;6.32;5.72;;;19.10;50.90;;;;;;3142605;28;20078;-83
2021/05/29 04:42:07;;;;;;;6.10;5.60;;;19.20;50.90;;;;;;3142763;28;20057;-83
2021/05/29 04:43:38;;;;;;;6.68;5.68;;;19.20;50.90;;;;;;3143177;28;20060;-82
2021/05/29 04:45:10;;;;;;;5.97;5.40;;;19.20;50.90;;;;;;3141247;28;20064;-82
2021/05/29 04:46:50;;;;;;;6.75;5.38;;;19.20;50.90;;;;;;3143028;28;20102;-83
2021/05/29 04:48:21;;;;;;;5.72;5.10;;;19.20;50.90;;;;;;3142346;28;20067;-81
2021/05/29 04:49:52;;;;;;;5.80;5.30;;;19.20;50.90;;;;;;3141628;28;20048;-83
2021/05/29 04:51:23;;;;;;;5.78;5.28;;;19.20;50.80;;;;;;3142177;28;20052;-82
2021/05/29 04:52:54;;;;;;;6.38;5.60;;;19.20;50.80;;;;;;3142065;28;20052;-81
2021/05/29 04:54:25;;;;;;;6.13;5.63;;;19.10;50.80;;;;;;3142453;28;20421;-83
2021/05/29 04:55:58;;;;;;;6.22;5.63;;;19.20;50.90;;;;;;3142048;28;20049;-83
2021/05/29 04:57:30;;;;;;;6.10;5.50;;;19.20;50.80;;;;;;3142369;28;20053;-82
2021/05/29 04:59:01;;;;;;;6.50;5.90;;;19.20;50.90;;;;;;3142372;28;20053;-82
2021/05/29 05:00:32;;;;;;;6.00;5.47;;;19.20;50.90;;;;;;3141074;28;20049;-83
2021/05/29 05:02:03;;;;;;;5.90;5.40;;;19.20;50.90;;;;;;3141935;28;20045;-82
2021/05/29 05:03:34;;;;;;;6.40;5.65;;;19.20;50.90;;;;;;3142398;28;20049;-83
2021/05/29 05:05:06;;;;;;;6.00;5.40;;;19.10;50.80;;;;;;3141093;28;20148;-83
2021/05/29 05:06:37;;;;;;;5.78;5.20;;;19.20;50.90;;;;;;3142608;28;20421;-83
2021/05/29 05:08:08;;;;;;;6.57;5.97;;;19.20;50.80;;;;;;3142835;28;20056;-83
2021/05/29 05:09:39;;;;;;;5.45;5.00;;;19.10;50.80;;;;;;3142507;28;20045;-83
2021/05/29 05:11:10;;;;;;;5.78;5.28;;;19.20;50.90;;;;;;3141837;28;20056;-83
2021/05/29 05:12:43;;;;;;;6.07;5.03;;;19.20;50.90;;;;;;3142022;28;20057;-81
2021/05/29 05:14:13;;;;;;;5.53;5.03;;;19.10;50.80;;;;;;3142749;28;20052;-82
2021/05/29 05:15:45;;;;;;;5.60;5.20;;;19.20;50.90;;;;;;3140931;28;20355;-83
2021/05/29 05:17:16;;;;;;;5.70;5.20;;;19.10;50.80;;;;;;3142361;28;20049;-84
2021/05/29 05:18:47;;;;;;;5.57;5.05;;;19.20;50.90;;;;;;3141122;28;20045;-84
2021/05/29 05:20:18;;;;;;;5.80;5.30;;;19.10;50.90;;;;;;3141648;28;20052;-84
2021/05/29 05:21:49;;;;;;;5.80;5.30;;;19.10;50.80;;;;;;3142765;28;20053;-83
2021/05/29 05:23:22;;;;;;;5.65;5.15;;;19.10;50.80;;;;;;3141812;28;20045;-83
2021/05/29 05:24:53;;;;;;;6.07;5.28;;;19.20;50.90;;;;;;3141957;28;20095;-83
2021/05/29 05:26:24;;;;;;;5.55;5.05;;;19.20;50.90;;;;;;3141780;28;20037;-82
2021/05/29 05:27:56;;;;;;;5.75;5.18;;;19.20;50.90;;;;;;3142118;28;20075;-82
2021/05/29 05:29:27;;;;;;;5.88;5.28;;;19.20;50.80;;;;;;3142806;28;20056;-83
2021/05/29 05:31:02;;;;;;;5.50;4.88;;;19.20;50.80;;;;;;3141336;28;20544;-83
2021/05/29 05:32:34;;;;;;;5.32;4.82;;;19.20;50.80;;;;;;3142034;28;20049;-82
2021/05/29 05:34:07;;;;;;;5.53;5.10;;;19.20;50.80;;;;;;3142204;28;20076;-82
2021/05/29 05:35:39;;;;;;;5.15;4.65;;;19.20;50.90;;;;;;3141572;28;20049;-83
2021/05/29 05:37:10;;;;;;;5.25;4.75;;;19.20;50.90;;;;;;3142635;28;20044;-83
2021/05/29 05:38:41;;;;;;;5.28;4.78;;;19.20;50.90;;;;;;3142446;28;20147;-83
2021/05/29 05:40:13;;;;;;;5.00;4.50;;;19.20;50.80;;;;;;3141580;28;20077;-83
2021/05/29 05:41:45;;;;;;;5.45;4.95;;;19.20;50.80;;;;;;3141732;28;20584;-83
2021/05/29 05:43:17;;;;;;;5.03;4.53;;;19.20;50.80;;;;;;3141980;28;20072;-82
2021/05/29 05:44:47;;;;;;;5.82;5.22;;;19.20;50.80;;;;;;3142406;28;20071;-84
2021/05/29 05:46:18;;;;;;;4.95;4.55;;;19.20;50.80;;;;;;3141309;28;20045;-83
2021/05/29 05:47:50;;;;;;;5.28;4.78;;;19.20;50.90;;;;;;3142996;28;20136;-83
2021/05/29 05:49:21;;;;;;;5.53;5.00;;;19.20;50.80;;;;;;3141973;28;20053;-82
2021/05/29 05:50:53;;;;;;;5.50;4.95;;;19.20;50.70;;;;;;3141361;28;20060;-84
2021/05/29 05:52:24;;;;;;;4.82;4.38;;;19.20;50.70;;;;;;3142034;28;20053;-83
2021/05/29 05:53:56;;;;;;;6.75;4.68;;;19.20;50.70;;;;;;3142321;28;20378;-82
2021/05/29 05:55:27;;;;;;;6.45;4.63;;;19.20;50.70;;;;;;3141762;28;20045;-83
2021/05/29 05:56:58;;;;;;;5.00;4.57;;;19.20;50.70;;;;;;3141992;28;20067;-82
2021/05/29 05:58:30;;;;;;;5.25;4.75;;;19.20;50.70;;;;;;3141630;28;20049;-84
2021/05/29 06:00:01;;;;;;;5.05;4.55;;;19.20;50.70;;;;;;3141908;28;20056;-83
2021/05/29 06:01:33;;;;;;;4.78;4.32;;;19.20;50.80;;;;;;3140296;28;20052;-83
2021/05/29 06:03:04;;;;;;;4.53;4.13;;;19.20;50.80;;;;;;3141356;28;20044;-83
2021/05/29 06:04:35;;;;;;;5.07;4.68;;;19.20;50.70;;;;;;3142230;28;20049;-82
2021/05/29 06:06:06;;;;;;;4.82;4.43;;;19.30;50.80;;;;;;3141416;28;20536;-82
2021/05/29 06:07:37;;;;;;;4.80;4.40;;;19.20;50.70;;;;;;3142243;28;20049;-83
2021/05/29 06:09:08;;;;;;;4.20;3.90;;;19.20;50.70;;;;;;3142566;28;20580;-83
2021/05/29 06:10:40;;;;;;;4.78;4.30;;;19.20;50.70;;;;;;3141837;28;20528;-82
2021/05/29 06:12:11;;;;;;;4.53;4.13;;;19.20;50.80;;;;;;3141814;28;20144;-82
2021/05/29 06:19:15;;;;;;;5.07;4.45;;;19.20;50.90;;;;;;3142444;28;20044;-83
2021/05/29 06:20:49;;;;;;;4.63;4.05;;;19.20;50.90;;;;;;3141511;28;20051;-83
2021/05/29 06:22:20;;;;;;;4.93;4.53;;;19.20;50.80;;;;;;3141806;28;20053;-83
2021/05/29 06:23:51;;;;;;;4.95;4.55;;;19.20;50.80;;;;;;3141909;28;20048;-83
2021/05/29 06:25:22;;;;;;;5.18;4.68;;;19.20;50.80;;;;;;3141633;28;20151;-82
2021/05/29 06:26:53;;;;;;;4.78;4.38;;;19.20;50.70;;;;;;3141926;28;20090;-83
2021/05/29 06:28:24;;;;;;;4.63;4.22;;;19.30;50.70;;;;;;3142090;28;20557;-82
2021/05/29 06:29:56;;;;;;;4.75;4.32;;;19.20;50.70;;;;;;3141201;28;20873;-83
2021/05/29 06:31:27;;;;;;;4.03;3.67;;;19.20;50.70;;;;;;3140945;28;20386;-83
2021/05/29 06:32:58;;;;;;;4.93;4.50;;;19.20;50.70;;;;;;3142345;28;20049;-83
2021/05/29 06:34:29;;;;;;;4.97;4.57;;;19.20;50.80;;;;;;3142260;28;20053;-82
2021/05/29 06:36:00;;;;;;;4.95;3.97;;;19.20;50.80;;;;;;3141705;28;20412;-82
2021/05/29 06:37:32;;;;;;;4.50;4.10;;;19.20;50.70;;;;;;3141435;28;20056;-83
2021/05/29 06:39:04;;;;;;;5.00;4.53;;;19.20;50.70;;;;;;3141435;28;20079;-83
2021/05/29 06:40:35;;;;;;;4.57;4.18;;;19.20;50.70;;;;;;3140717;28;20060;-83
2021/05/29 06:42:07;;;;;;;4.65;4.25;;;19.20;50.70;;;;;;3141543;28;20049;-83
2021/05/29 06:43:37;;;;;;;4.70;4.22;;;19.20;50.80;;;;;;3141906;28;20053;-83
2021/05/29 06:45:10;;;;;;;4.88;4.38;;;19.20;50.80;;;;;;3140508;28;20051;-83
2021/05/29 06:46:41;;;;;;;4.70;4.30;;;19.20;50.70;;;;;;3141362;28;20056;-82
2021/05/29 06:48:14;;;;;;;4.70;4.30;;;19.20;50.70;;;;;;3142521;28;20115;-83
2021/05/29 06:49:45;;;;;;;5.15;4.20;;;19.20;50.70;;;;;;3141702;28;20057;-82
2021/05/29 06:51:19;;;;;;;4.40;4.00;;;19.20;50.70;;;;;;3141000;28;20053;-83
2021/05/29 06:52:53;;;;;;;4.75;4.30;;;19.20;50.70;;;;;;3141582;28;20049;-82
2021/05/29 06:54:34;;;;;;;4.50;4.10;;;19.20;50.70;;;;;;3141321;28;20053;-83
2021/05/29 06:59:43;;;;;;;4.88;4.40;;;19.20;50.80;;;;;;3141675;28;20045;-81
2021/05/29 07:01:16;;;;;;;4.50;3.88;;;19.20;50.80;;;;;;3140822;28;20053;-84
2021/05/29 07:02:47;;;;;;;4.22;3.83;;;19.20;50.80;;;;;;3141381;28;20111;-82
2021/05/29 07:04:18;;;;;;;4.40;4.00;;;19.20;50.80;;;;;;3141866;28;20060;-83
2021/05/29 07:05:50;;;;;;;4.43;4.10;;;19.20;50.80;;;;;;3141306;28;20045;-81
2021/05/29 07:07:21;;;;;;;4.85;4.38;;;19.20;50.70;;;;;;3142091;28;20049;-83
2021/05/29 07:08:55;;;;;;;4.55;3.92;;;19.20;50.70;;;;;;3141167;28;20493;-83
2021/05/29 07:10:27;;;;;;;4.68;4.28;;;19.20;50.80;;;;;;3140766;28;20071;-82
2021/05/29 07:11:58;;;;;;;4.32;3.92;;;19.20;50.70;;;;;;3141253;28;20053;-83
2021/05/29 07:13:29;;;;;;;4.40;4.00;;;19.20;50.70;;;;;;3141639;28;20056;-83
2021/05/29 07:15:00;;;;;;;4.40;4.00;;;19.20;50.80;;;;;;3141833;28;20053;-83
2021/05/29 07:16:34;;;;;;;4.60;4.20;;;19.20;50.70;;;;;;3140106;28;20056;-81
2021/05/29 07:18:08;;;;;;;5.60;4.28;;;19.20;50.70;;;;;;3141023;28;20464;-82
2021/05/29 07:19:39;;;;;;;4.47;4.07;;;19.20;50.60;;;;;;3141468;28;20108;-83
2021/05/29 07:21:10;;;;;;;4.78;4.38;;;19.20;50.60;;;;;;3140816;28;20045;-83
2021/05/29 07:22:41;;;;;;;4.18;3.88;;;19.20;50.70;;;;;;3140835;28;20565;-83
2021/05/29 07:24:12;;;;;;;4.47;4.07;;;19.20;50.70;;;;;;3141911;28;20102;-82
2021/05/29 07:25:43;;;;;;;4.65;4.10;;;19.20;50.70;;;;;;3141227;28;20049;-83
2021/05/29 07:27:14;;;;;;;4.32;3.92;;;19.20;50.70;;;;;;3141194;28;20055;-83
2021/05/29 07:28:45;;;;;;;4.47;4.07;;;19.20;50.70;;;;;;3141600;28;20048;-83
2021/05/29 07:30:17;;;;;;;4.57;4.18;;;19.20;50.80;;;;;;3140129;28;20075;-83
2021/05/29 07:31:49;;;;;;;4.60;4.03;;;19.20;50.70;;;;;;3141248;28;20071;-83
2021/05/29 07:33:20;;;;;;;4.50;4.10;;;19.20;50.70;;;;;;3141461;28;20049;-83
2021/05/29 07:34:52;;;;;;;4.60;4.20;;;19.20;50.70;;;;;;3141481;28;20055;-82
2021/05/29 07:36:23;;;;;;;4.75;4.32;;;19.20;50.70;;;;;;3140805;28;20056;-82
2021/05/29 07:37:54;;;;;;;4.32;3.92;;;19.20;50.70;;;;;;3141695;28;20064;-82
2021/05/29 07:39:25;;;;;;;4.38;3.97;;;19.20;50.70;;;;;;3141488;28;20053;-83
2021/05/29 07:40:56;;;;;;;4.70;4.30;;;19.20;50.70;;;;;;3140687;28;20049;-82
2021/05/29 07:42:28;;;;;;;4.97;4.47;;;19.20;50.70;;;;;;3143735;28;20071;-82
2021/05/29 07:43:59;;;;;;;4.28;3.88;;;19.20;50.70;;;;;;3144137;28;20049;-83
2021/05/29 07:45:30;;;;;;;4.50;4.10;;;19.20;50.70;;;;;;3142577;28;20049;-83
2021/05/29 07:47:03;;;;;;;4.38;3.97;;;19.20;50.70;;;;;;3144138;28;20053;-82
2021/05/29 07:48:34;;;;;;;4.32;3.92;;;19.20;50.70;;;;;;3143782;28;20339;-83
2021/05/29 07:50:07;;;;;;;4.50;3.97;;;19.20;50.60;;;;;;3142821;28;20509;-83
2021/05/29 07:51:38;;;;;;;4.30;3.90;;;19.20;50.60;;;;;;3144144;28;20061;-83
2021/05/29 07:53:09;;;;;;;5.10;4.40;;;19.20;50.60;;;;;;3144361;28;20093;-82
2021/05/29 07:54:40;;;;;;;4.55;3.90;;;19.20;50.70;;;;;;3143244;28;20110;-83
2021/05/29 07:56:12;;;;;;;4.65;4.25;;;19.20;50.60;;;;;;3143068;28;20052;-83
2021/05/29 07:57:43;;;;;;;4.25;3.95;;;19.20;50.60;;;;;;3143965;28;20144;-83
2021/05/29 07:59:17;;;;;;;4.75;4.13;;;19.20;50.60;;;;;;3143773;28;20045;-82
2021/05/29 08:00:51;;;;;;;4.50;4.10;;;19.20;50.60;;;;;;3141841;28;20471;-83
2021/05/29 08:02:24;;;;;;;4.60;3.95;;;19.20;50.50;;;;;;3143563;28;20049;-82
2021/05/29 08:03:55;;;;;;;4.38;4.00;;;19.20;50.40;;;;;;3144243;28;20049;-83
2021/05/29 08:05:26;;;;;;;4.60;4.20;;;19.20;50.50;;;;;;3143691;28;20052;-83
2021/05/29 08:06:57;;;;;;;4.40;4.00;;;19.20;50.60;;;;;;3144016;28;20496;-82
2021/05/29 08:08:27;;;;;;;4.93;4.47;;;19.20;50.50;;;;;;3143880;28;20048;-82